• Join FlightAware (Why Join?)
  • Login
  • US Flag 
12:40AM EST


 

Airport Tracker/Info


-or-


 

Live Flight TrackerFlight Track Log ✈ EJA922 ✈ 01-Oct-2013 ✈ KPWK - KGRR

Flight Track Log - Related Links

Times and Time Zones

All times are in EDT time to prevent confusion due to time zone crossing. See the EJA922 flight status page for this flight to view local times or setup timezone preferences in your user account.

Time Position Orientation Groundspeed Altitude Reporting Facility
EDT Latitude Longitude Course Direction KTS MPH feet Rate Location/Type
11:34AM 42.0958 -87.8842 87° East 187 215 2,100  Level Chicago Center
11:35AM 42.1278 -87.8103 60° Northeast 259 298 5,100 1,860 Climbing Chicago Center
11:36AM 42.1619 -87.7106 65° Northeast 281 323 6,000 660 Climbing Chicago Center
11:37AM 42.1931 -87.6031 69° East 297 342 6,500 1,920 Climbing Chicago Center
11:38AM 42.2086 -87.4889 80° East 306 352 10,000 2,160 Climbing Chicago Center
11:39AM 42.2297 -87.3639 77° East 333 383 11,000 480 Climbing Chicago Center
11:40AM 42.3323 -87.2461 87° East  Level Estimated
11:40AM 42.2603 -87.1714 78° East 423 487 11,000  Level Chicago Center
11:41AM 42.2817 -87.0133 80° East 430 495 11,100  Climbing Chicago Center
11:42AM 42.2864 -86.8539 88° East 426 490 11,100 -60 Level Chicago Center
11:43AM 42.2925 -86.6961 87° East 424 488 11,000 -60 Descending Chicago Center
11:44AM 42.2989 -86.5228 87° East 434 499 11,000  Level Chicago Center
11:45AM 42.3061 -86.3694 86° East 437 503 11,000  Level Chicago Center
11:46AM 42.3125 -86.1825 87° East 425 489 11,000  Level Chicago Center
11:47AM 42.3383 -86.0269 77° East 438 504 11,100  Climbing Chicago Center
11:49AM 42.4214 -85.9153 45° Northeast 432 497 11,000 -60 Descending Chicago Center
11:50AM 42.5119 -85.8131 40° Northeast 429 494 11,000  Level Chicago Center
11:51AM 42.6008 -85.7111 40° Northeast 425 489 11,000 -540 Level Chicago Center
11:52AM 42.6733 -85.6258 41° Northeast 356 410 10,000 -1,440 Descending Chicago Center
11:53AM 42.7314 -85.5081 56° Northeast 317 365 8,100 -1,800 Descending Chicago Center
11:54AM 42.7778 -85.4133 56° Northeast 307 353 6,400 -1,800 Descending Chicago Center
11:55AM 42.8219 -85.3256 56° Northeast 293 337 4,400 -1,680 Descending Chicago Center
11:56AM 42.8683 -85.2672 43° Northeast 252 290 3,000 -780 Descending Chicago Center
11:57AM 42.9025 -85.3150 314° West 206 237 2,900 -180 Descending Chicago Center
11:58AM 42.8953 -85.3719 260° West 171 197 2,700 -540 Descending Chicago Center
11:59AM 42.8892 -85.4289 262° West 143 165 1,900 -780 Descending Chicago Center
12:00PM 42.8836 -85.4772 261° West 134 154 1,200 -540 Descending Chicago Center
12:01PM 42.8792 -85.5231 262° West 132 152 900 -300 Descending Chicago Center